createdAt,value
2024-01-11T00:00:31.110Z,629.00
2024-01-11T00:01:31.069Z,634.00
2024-01-11T00:02:31.248Z,634.00
2024-01-11T00:03:31.054Z,631.00
2024-01-11T00:04:31.102Z,637.00
2024-01-11T00:05:31.202Z,635.00
2024-01-11T00:06:31.233Z,634.00
2024-01-11T00:07:31.153Z,630.00
2024-01-11T00:08:31.231Z,635.00
2024-01-11T00:09:31.266Z,636.00
2024-01-11T00:10:31.274Z,636.00
2024-01-11T00:11:31.301Z,635.00
2024-01-11T00:12:31.274Z,637.00
2024-01-11T00:13:31.282Z,636.00
2024-01-11T00:14:31.370Z,643.00
2024-01-11T00:15:31.350Z,636.00
2024-01-11T00:16:31.306Z,636.00
2024-01-11T00:17:31.379Z,636.00
2024-01-11T00:18:31.407Z,639.00
2024-01-11T00:19:31.374Z,637.00
2024-01-11T00:20:31.346Z,635.00
2024-01-11T00:21:31.391Z,636.00
2024-01-11T00:22:31.292Z,636.00
2024-01-11T00:23:31.336Z,632.00
2024-01-11T00:24:31.306Z,634.00
2024-01-11T00:25:32.317Z,630.00
2024-01-11T00:26:31.363Z,628.00
2024-01-11T00:27:31.307Z,635.00
2024-01-11T00:28:31.308Z,631.00
2024-01-11T00:29:31.391Z,635.00
2024-01-11T00:30:31.342Z,634.00
2024-01-11T00:31:31.309Z,636.00
2024-01-11T00:32:31.400Z,634.00
2024-01-11T00:33:31.366Z,630.00
2024-01-11T00:34:31.398Z,628.00
2024-01-11T00:35:31.382Z,627.00
2024-01-11T00:36:31.345Z,625.00
2024-01-11T00:37:31.334Z,624.00
2024-01-11T00:38:31.417Z,621.00
2024-01-11T00:39:31.322Z,619.00
2024-01-11T00:40:31.329Z,624.00
2024-01-11T00:41:31.409Z,625.00
2024-01-11T00:42:31.338Z,628.00
2024-01-11T00:43:31.332Z,628.00
2024-01-11T00:44:31.385Z,628.00
2024-01-11T00:45:31.342Z,626.00
2024-01-11T00:46:31.366Z,622.00
2024-01-11T00:47:31.416Z,615.00
2024-01-11T00:48:31.437Z,617.00
2024-01-11T00:49:31.415Z,618.00
2024-01-11T00:50:31.372Z,615.00
2024-01-11T00:51:31.358Z,615.00
2024-01-11T00:52:31.393Z,619.00
2024-01-11T00:53:31.480Z,620.00
2024-01-11T00:54:31.371Z,615.00
2024-01-11T00:55:31.382Z,619.00
2024-01-11T00:56:31.416Z,622.00
2024-01-11T00:57:31.415Z,619.00
2024-01-11T00:58:31.479Z,624.00
2024-01-11T00:59:31.672Z,618.00
2024-01-11T01:00:31.554Z,617.00
2024-01-11T01:01:31.568Z,617.00
2024-01-11T01:02:31.681Z,619.00
2024-01-11T01:03:31.784Z,621.00
2024-01-11T01:04:31.668Z,622.00
2024-01-11T01:05:31.843Z,621.00
2024-01-11T01:06:31.853Z,624.00
2024-01-11T01:07:31.785Z,620.00
2024-01-11T01:08:31.865Z,618.00
2024-01-11T01:09:31.885Z,618.00
2024-01-11T01:10:31.856Z,620.00
2024-01-11T01:11:31.926Z,618.00
2024-01-11T01:12:31.875Z,617.00
2024-01-11T01:13:31.889Z,615.00
2024-01-11T01:14:32.007Z,613.00
2024-01-11T01:15:31.932Z,613.00
2024-01-11T01:16:31.995Z,612.00
2024-01-11T01:17:32.064Z,615.00
2024-01-11T01:18:32.088Z,619.00
2024-01-11T01:19:32.068Z,619.00
2024-01-11T01:20:32.012Z,620.00
2024-01-11T01:21:32.047Z,621.00
2024-01-11T01:22:32.019Z,619.00
2024-01-11T01:23:32.124Z,620.00
2024-01-11T01:24:32.050Z,621.00
2024-01-11T01:25:32.074Z,623.00
2024-01-11T01:26:32.054Z,619.00
2024-01-11T01:27:32.014Z,621.00
2024-01-11T01:28:32.018Z,625.00
2024-01-11T01:29:32.112Z,628.00
2024-01-11T01:30:32.111Z,633.00
2024-01-11T01:31:32.046Z,626.00
2024-01-11T01:32:32.327Z,618.00
2024-01-11T01:33:32.203Z,616.00
2024-01-11T01:34:32.171Z,620.00
2024-01-11T01:35:32.117Z,618.00
2024-01-11T01:36:32.033Z,621.00
2024-01-11T01:37:32.048Z,621.00
2024-01-11T01:38:32.282Z,620.00
2024-01-11T01:39:32.098Z,619.00
2024-01-11T01:40:32.075Z,621.00
2024-01-11T01:41:32.138Z,621.00
2024-01-11T01:42:32.046Z,621.00
2024-01-11T01:43:32.061Z,620.00
2024-01-11T01:44:32.139Z,621.00
2024-01-11T01:45:32.059Z,623.00
2024-01-11T01:46:32.114Z,622.00
2024-01-11T01:47:32.322Z,620.00
2024-01-11T01:48:32.194Z,617.00
2024-01-11T01:49:32.122Z,615.00
2024-01-11T01:50:32.191Z,611.00
2024-01-11T01:51:32.066Z,612.00
2024-01-11T01:52:32.074Z,609.00
2024-01-11T01:53:32.113Z,608.00
2024-01-11T01:54:32.090Z,607.00
2024-01-11T01:55:32.190Z,606.00
2024-01-11T01:56:32.172Z,612.00
2024-01-11T01:57:32.124Z,613.00
2024-01-11T01:58:32.137Z,613.00
2024-01-11T01:59:32.157Z,615.00
2024-01-11T02:00:32.081Z,621.00
2024-01-11T02:01:32.148Z,621.00
2024-01-11T02:02:32.099Z,619.00
2024-01-11T02:03:32.161Z,619.00
2024-01-11T02:04:32.097Z,619.00
2024-01-11T02:05:32.275Z,619.00
2024-01-11T02:06:32.268Z,615.00
2024-01-11T02:07:32.103Z,620.00
2024-01-11T02:08:32.177Z,615.00
2024-01-11T02:09:32.141Z,622.00
2024-01-11T02:10:32.116Z,620.00
2024-01-11T02:11:32.125Z,622.00
2024-01-11T02:12:32.108Z,624.00
2024-01-11T02:13:32.137Z,628.00
2024-01-11T02:14:32.141Z,631.00
2024-01-11T02:15:32.153Z,637.00
2024-01-11T02:16:32.137Z,636.00
2024-01-11T02:17:32.224Z,635.00
2024-01-11T02:18:32.207Z,642.00
2024-01-11T02:19:32.198Z,647.00
2024-01-11T02:20:32.216Z,648.00
2024-01-11T02:21:32.169Z,648.00
2024-01-11T02:22:32.193Z,648.00
2024-01-11T02:23:32.282Z,651.00
2024-01-11T02:24:32.169Z,653.00
2024-01-11T02:25:32.178Z,659.00
2024-01-11T02:26:32.227Z,648.00
2024-01-11T02:27:32.157Z,649.00
2024-01-11T02:28:32.161Z,649.00
2024-01-11T02:29:32.278Z,656.00
2024-01-11T02:30:32.224Z,663.00
2024-01-11T02:31:32.190Z,670.00
2024-01-11T02:32:32.225Z,664.00
2024-01-11T02:33:32.268Z,672.00
2024-01-11T02:34:32.223Z,669.00
2024-01-11T02:35:32.258Z,674.00
2024-01-11T02:36:32.295Z,686.00
2024-01-11T02:37:32.286Z,680.00
2024-01-11T02:38:32.340Z,681.00
2024-01-11T02:39:32.299Z,671.00
2024-01-11T02:40:32.307Z,679.00
2024-01-11T02:41:32.341Z,666.00
2024-01-11T02:42:32.292Z,672.00
2024-01-11T02:43:32.299Z,673.00
2024-01-11T02:44:32.372Z,675.00
2024-01-11T02:45:32.311Z,677.00
2024-01-11T02:46:32.330Z,686.00
2024-01-11T02:47:32.553Z,673.00
2024-01-11T02:48:32.449Z,673.00
2024-01-11T02:49:32.435Z,674.00
2024-01-11T02:50:32.368Z,677.00
2024-01-11T02:51:32.348Z,681.00
2024-01-11T02:52:32.338Z,694.00
2024-01-11T02:53:32.369Z,699.00
2024-01-11T02:54:32.346Z,700.00
2024-01-11T02:55:32.347Z,706.00
2024-01-11T02:56:32.379Z,692.00
2024-01-11T02:57:32.365Z,709.00
2024-01-11T02:58:32.468Z,705.00
2024-01-11T02:59:32.565Z,704.00
2024-01-11T03:00:32.584Z,704.00
2024-01-11T03:01:32.505Z,701.00
2024-01-11T03:02:32.557Z,707.00
2024-01-11T03:03:32.588Z,707.00
2024-01-11T03:04:32.542Z,704.00
2024-01-11T03:05:32.679Z,702.00
2024-01-11T03:06:32.564Z,701.00
2024-01-11T03:07:32.536Z,693.00
2024-01-11T03:08:32.597Z,699.00
2024-01-11T03:09:32.542Z,698.00
2024-01-11T03:10:32.541Z,697.00
2024-01-11T03:11:32.567Z,700.00
2024-01-11T03:12:32.557Z,695.00
2024-01-11T03:13:32.563Z,689.00
2024-01-11T03:14:32.622Z,694.00
2024-01-11T03:15:32.562Z,684.00
2024-01-11T03:16:32.560Z,678.00
2024-01-11T03:17:32.673Z,684.00
2024-01-11T03:18:32.722Z,677.00
2024-01-11T03:19:32.659Z,664.00
2024-01-11T03:20:32.627Z,661.00
2024-01-11T03:21:32.584Z,659.00
2024-01-11T03:22:32.573Z,659.00
2024-01-11T03:23:32.666Z,663.00
2024-01-11T03:24:32.581Z,657.00
2024-01-11T03:25:32.586Z,659.00
2024-01-11T03:26:32.618Z,664.00
2024-01-11T03:27:32.580Z,661.00
2024-01-11T03:28:32.575Z,668.00
2024-01-11T03:29:32.659Z,676.00
2024-01-11T03:30:32.618Z,684.00
2024-01-11T03:31:32.582Z,692.00
2024-01-11T03:32:32.670Z,679.00
2024-01-11T03:33:32.801Z,700.00
2024-01-11T03:34:32.788Z,702.00
2024-01-11T03:35:32.741Z,693.00
2024-01-11T03:36:32.755Z,689.00
2024-01-11T03:37:32.785Z,696.00
2024-01-11T03:38:32.956Z,700.00
2024-01-11T03:39:32.824Z,695.00
2024-01-11T03:40:32.812Z,683.00
2024-01-11T03:41:32.864Z,684.00
2024-01-11T03:42:32.822Z,691.00
2024-01-11T03:43:32.837Z,677.00
2024-01-11T03:44:32.890Z,699.00
2024-01-11T03:45:32.859Z,699.00
2024-01-11T03:46:32.836Z,700.00
2024-01-11T03:47:32.876Z,700.00
2024-01-11T03:48:32.917Z,707.00
2024-01-11T03:49:33.009Z,714.00
2024-01-11T03:50:32.953Z,699.00
2024-01-11T03:51:32.841Z,704.00
2024-01-11T03:52:32.854Z,710.00
2024-01-11T03:53:32.858Z,719.00
2024-01-11T03:54:32.940Z,738.00
2024-01-11T03:55:32.919Z,745.00
2024-01-11T03:56:32.885Z,745.00
2024-01-11T03:57:32.885Z,748.00
2024-01-11T03:58:32.857Z,753.00
2024-01-11T03:59:32.922Z,746.00
2024-01-11T04:00:32.885Z,750.00
2024-01-11T04:01:32.889Z,759.00
2024-01-11T04:02:32.924Z,767.00
2024-01-11T04:03:32.956Z,797.00
2024-01-11T04:04:32.885Z,798.00
2024-01-11T04:05:32.963Z,788.00
2024-01-11T04:06:33.064Z,798.00
2024-01-11T04:07:32.899Z,805.00
2024-01-11T04:08:32.944Z,800.00
2024-01-11T04:09:32.894Z,801.00
2024-01-11T04:10:32.891Z,807.00
2024-01-11T04:11:32.998Z,805.00
2024-01-11T04:12:32.913Z,818.00
2024-01-11T04:13:32.957Z,815.00
2024-01-11T04:14:32.945Z,816.00
2024-01-11T04:15:32.909Z,816.00
2024-01-11T04:16:32.948Z,820.00
2024-01-11T04:17:33.084Z,821.00
2024-01-11T04:18:32.990Z,827.00
2024-01-11T04:19:33.001Z,821.00
2024-01-11T04:20:33.019Z,826.00
2024-01-11T04:21:32.993Z,816.00
2024-01-11T04:22:32.925Z,808.00
2024-01-11T04:23:33.014Z,806.00
2024-01-11T04:24:32.940Z,810.00
2024-01-11T04:25:32.934Z,796.00
2024-01-11T04:26:32.998Z,794.00
2024-01-11T04:27:32.960Z,803.00
2024-01-11T04:28:32.950Z,794.00
2024-01-11T04:29:33.036Z,796.00
2024-01-11T04:30:33.124Z,793.00
2024-01-11T04:31:33.113Z,789.00
2024-01-11T04:32:33.161Z,789.00
2024-01-11T04:33:33.060Z,790.00
2024-01-11T04:34:33.136Z,795.00
2024-01-11T04:35:33.053Z,801.00
2024-01-11T04:36:33.032Z,790.00
2024-01-11T04:37:33.082Z,793.00
2024-01-11T04:38:33.184Z,800.00
2024-01-11T04:39:33.076Z,801.00
2024-01-11T04:40:33.050Z,811.00
2024-01-11T04:41:33.151Z,800.00
2024-01-11T04:42:40.463Z,600.00
2024-01-11T04:43:40.438Z,600.00
2024-01-11T04:44:40.492Z,600.00
2024-01-11T04:45:40.476Z,600.00
2024-01-11T04:46:40.451Z,600.00
2024-01-11T04:47:40.556Z,607.00
2024-01-11T04:48:40.547Z,603.00
2024-01-11T04:49:40.471Z,606.00
2024-01-11T04:50:40.539Z,607.00
2024-01-11T04:51:40.493Z,611.00
2024-01-11T04:52:40.466Z,608.00
2024-01-11T04:53:40.632Z,608.00
2024-01-11T04:54:40.471Z,614.00
2024-01-11T04:55:40.490Z,613.00
2024-01-11T04:56:40.602Z,613.00
2024-01-11T04:57:40.459Z,614.00
2024-01-11T04:58:40.462Z,614.00
2024-01-11T04:59:40.637Z,614.00
2024-01-11T05:00:40.582Z,614.00
2024-01-11T05:01:40.503Z,615.00
2024-01-11T05:02:40.672Z,618.00
2024-01-11T05:03:40.562Z,620.00
2024-01-11T05:04:40.506Z,614.00
2024-01-11T05:05:40.749Z,611.00
2024-01-11T05:06:40.550Z,611.00
2024-01-11T05:07:40.476Z,609.00
2024-01-11T05:08:40.581Z,613.00
2024-01-11T05:09:40.488Z,613.00
2024-01-11T05:10:40.500Z,613.00
2024-01-11T05:11:40.594Z,613.00
2024-01-11T05:12:40.508Z,613.00
2024-01-11T05:13:40.522Z,615.00
2024-01-11T05:14:40.614Z,617.00
2024-01-11T05:15:40.497Z,613.00
2024-01-11T05:16:40.530Z,615.00
2024-01-11T05:17:40.591Z,619.00
2024-01-11T05:18:40.607Z,626.00
2024-01-11T05:19:40.565Z,634.00
2024-01-11T05:20:40.560Z,635.00
2024-01-11T05:21:40.530Z,635.00
2024-01-11T05:22:40.534Z,636.00
2024-01-11T05:23:40.576Z,636.00
2024-01-11T05:24:40.532Z,638.00
2024-01-11T05:25:40.535Z,641.00
2024-01-11T05:26:40.605Z,641.00
2024-01-11T05:27:40.533Z,647.00
2024-01-11T05:28:40.569Z,643.00
2024-01-11T05:29:40.626Z,642.00
2024-01-11T05:30:40.752Z,638.00
2024-01-11T05:31:40.679Z,643.00
2024-01-11T05:32:40.614Z,641.00
2024-01-11T05:33:40.733Z,641.00
2024-01-11T05:34:40.696Z,642.00
2024-01-11T05:35:40.598Z,644.00
2024-01-11T05:36:40.567Z,647.00
2024-01-11T05:37:40.569Z,641.00
2024-01-11T05:38:40.712Z,643.00
2024-01-11T05:39:40.589Z,642.00
2024-01-11T05:40:40.604Z,644.00
2024-01-11T05:41:40.631Z,642.00
2024-01-11T05:42:40.622Z,645.00
2024-01-11T05:43:40.668Z,651.00
2024-01-11T05:44:40.646Z,665.00
2024-01-11T05:45:47.287Z,682.00
2024-01-11T05:46:41.620Z,642.00
2024-01-11T05:47:40.753Z,642.00
2024-01-11T05:48:40.845Z,647.00
2024-01-11T05:49:40.625Z,654.00
2024-01-11T05:50:40.712Z,664.00
2024-01-11T05:51:40.644Z,705.00
2024-01-11T05:52:40.639Z,722.00
2024-01-11T05:53:40.752Z,724.00
2024-01-11T05:54:40.642Z,737.00
2024-01-11T05:55:40.623Z,740.00
2024-01-11T05:56:40.672Z,741.00
2024-01-11T05:57:40.626Z,742.00
2024-01-11T05:58:40.692Z,745.00
2024-01-11T05:59:40.729Z,751.00
2024-01-11T06:00:40.741Z,764.00
2024-01-11T06:01:40.682Z,771.00
2024-01-11T06:02:40.751Z,743.00
2024-01-11T06:03:40.844Z,747.00
2024-01-11T06:04:40.646Z,749.00
2024-01-11T06:05:40.806Z,757.00
2024-01-11T06:06:40.684Z,747.00
2024-01-11T06:07:40.673Z,758.00
2024-01-11T06:08:40.699Z,763.00
2024-01-11T06:09:40.686Z,756.00
2024-01-11T06:10:40.681Z,759.00
2024-01-11T06:11:40.859Z,763.00
2024-01-11T06:12:40.656Z,769.00
2024-01-11T06:13:40.659Z,768.00
2024-01-11T06:14:40.748Z,767.00
2024-01-11T06:15:40.678Z,769.00
2024-01-11T06:16:40.710Z,789.00
2024-01-11T06:17:40.800Z,788.00
2024-01-11T06:18:40.766Z,801.00
2024-01-11T06:19:40.672Z,802.00
2024-01-11T06:20:40.792Z,793.00
2024-01-11T06:21:40.692Z,801.00
2024-01-11T06:22:42.885Z,798.00
2024-01-11T06:23:40.778Z,813.00
2024-01-11T06:24:40.712Z,813.00
2024-01-11T06:25:40.757Z,818.00
2024-01-11T06:26:40.747Z,820.00
2024-01-11T06:27:40.693Z,821.00
2024-01-11T06:28:40.714Z,823.00
2024-01-11T06:29:40.883Z,823.00
2024-01-11T06:30:40.848Z,820.00
2024-01-11T06:31:40.712Z,808.00
2024-01-11T06:32:40.876Z,775.00
2024-01-11T06:33:40.778Z,757.00
2024-01-11T06:34:40.791Z,742.00
2024-01-11T06:35:40.751Z,738.00
2024-01-11T06:36:40.714Z,761.00
2024-01-11T06:37:40.831Z,822.00
2024-01-11T06:38:40.879Z,879.00
2024-01-11T06:39:40.757Z,900.00
2024-01-11T06:40:40.729Z,914.00
2024-01-11T06:41:40.884Z,921.00
2024-01-11T06:42:40.753Z,924.00
2024-01-11T06:43:40.751Z,918.00
2024-01-11T06:44:40.831Z,911.00
2024-01-11T06:45:40.765Z,902.00
2024-01-11T06:46:40.772Z,910.00
2024-01-11T06:47:40.947Z,903.00
2024-01-11T06:48:41.084Z,905.00
2024-01-11T06:49:40.789Z,910.00
2024-01-11T06:50:40.830Z,914.00
2024-01-11T06:51:40.805Z,918.00
2024-01-11T06:52:40.791Z,920.00
2024-01-11T06:53:40.836Z,921.00
2024-01-11T06:54:40.814Z,910.00
2024-01-11T06:55:40.829Z,914.00
2024-01-11T06:56:40.999Z,919.00
2024-01-11T06:57:40.863Z,909.00
2024-01-11T06:58:40.848Z,917.00
2024-01-11T06:59:41.159Z,909.00
2024-01-11T07:00:40.881Z,911.00
2024-01-11T07:01:40.908Z,900.00
2024-01-11T07:02:40.912Z,892.00
2024-01-11T07:03:40.952Z,881.00
2024-01-11T07:04:40.923Z,873.00
2024-01-11T07:05:41.031Z,857.00
2024-01-11T07:06:41.054Z,839.00
2024-01-11T07:07:40.958Z,829.00
2024-01-11T07:08:41.186Z,826.00
2024-01-11T07:09:40.993Z,812.00
2024-01-11T07:10:41.074Z,798.00
2024-01-11T07:11:41.238Z,797.00
2024-01-11T07:12:41.019Z,781.00
2024-01-11T07:13:41.028Z,771.00
2024-01-11T07:14:41.040Z,761.00
2024-01-11T07:15:41.010Z,739.00
2024-01-11T07:16:41.023Z,723.00
2024-01-11T07:17:41.131Z,714.00
2024-01-11T07:18:41.093Z,707.00
2024-01-11T07:19:41.063Z,692.00
2024-01-11T07:20:41.079Z,695.00
2024-01-11T07:21:41.032Z,678.00
2024-01-11T07:22:42.537Z,685.00
2024-01-11T07:23:41.144Z,684.00
2024-01-11T07:24:41.023Z,690.00
2024-01-11T07:25:41.025Z,701.00
2024-01-11T07:26:41.133Z,719.00
2024-01-11T07:27:41.038Z,714.00
2024-01-11T07:28:41.037Z,719.00
2024-01-11T07:29:41.092Z,732.00
2024-01-11T07:30:41.204Z,735.00
2024-01-11T07:31:41.064Z,751.00
2024-01-11T07:32:41.204Z,752.00
2024-01-11T07:33:41.115Z,751.00
2024-01-11T07:34:41.094Z,757.00
2024-01-11T07:35:41.125Z,759.00
2024-01-11T07:36:41.102Z,770.00
2024-01-11T07:37:41.096Z,776.00
2024-01-11T07:38:41.099Z,786.00
2024-01-11T07:39:41.064Z,786.00
2024-01-11T07:40:43.633Z,787.00
2024-01-11T07:41:41.178Z,789.00
2024-01-11T07:42:41.076Z,787.00
2024-01-11T07:43:48.996Z,793.00
2024-01-11T07:44:43.092Z,788.00
2024-01-11T07:45:41.111Z,794.00
2024-01-11T07:46:46.944Z,788.00
2024-01-11T07:47:42.257Z,788.00
2024-01-11T07:48:41.170Z,796.00
2024-01-11T07:49:41.130Z,809.00
2024-01-11T07:50:41.143Z,833.00
2024-01-11T07:51:41.116Z,863.00
2024-01-11T07:52:41.137Z,872.00
2024-01-11T07:53:41.331Z,878.00
2024-01-11T07:54:41.112Z,869.00
2024-01-11T07:55:41.114Z,866.00
2024-01-11T07:56:42.274Z,860.00
2024-01-11T07:57:41.158Z,859.00
2024-01-11T07:58:41.190Z,857.00
2024-01-11T07:59:41.168Z,855.00
2024-01-11T08:00:42.213Z,843.00
2024-01-11T08:01:41.193Z,840.00
2024-01-11T08:02:41.327Z,852.00
2024-01-11T08:03:41.202Z,859.00
2024-01-11T08:04:41.139Z,864.00
2024-01-11T08:05:41.231Z,865.00
2024-01-11T08:06:41.250Z,860.00
2024-01-11T08:07:41.195Z,861.00
2024-01-11T08:08:41.384Z,861.00
2024-01-11T08:09:41.176Z,861.00
2024-01-11T08:10:41.199Z,870.00
2024-01-11T08:11:44.221Z,871.00
2024-01-11T08:12:42.191Z,861.00
2024-01-11T08:13:41.227Z,865.00
2024-01-11T08:14:41.295Z,875.00
2024-01-11T08:15:41.297Z,888.00
2024-01-11T08:16:41.345Z,903.00
2024-01-11T08:17:43.113Z,912.00
2024-01-11T08:18:41.366Z,911.00
2024-01-11T08:19:41.321Z,927.00
2024-01-11T08:20:41.341Z,941.00
2024-01-11T08:21:41.367Z,943.00
2024-01-11T08:22:41.431Z,949.00
2024-01-11T08:23:41.372Z,953.00
2024-01-11T08:24:41.339Z,957.00
2024-01-11T08:25:41.348Z,949.00
2024-01-11T08:26:41.488Z,950.00
2024-01-11T08:27:41.367Z,951.00
2024-01-11T08:28:41.381Z,953.00
2024-01-11T08:29:41.416Z,958.00
2024-01-11T08:30:41.394Z,956.00
2024-01-11T08:31:41.393Z,952.00
2024-01-11T08:32:41.551Z,951.00
2024-01-11T08:33:41.704Z,942.00
2024-01-11T08:34:41.594Z,943.00
2024-01-11T08:35:41.415Z,953.00
2024-01-11T08:36:41.425Z,960.00
2024-01-11T08:37:41.450Z,971.00
2024-01-11T08:38:41.429Z,971.00
2024-01-11T08:39:43.296Z,974.00
2024-01-11T08:40:41.382Z,972.00
2024-01-11T08:41:41.552Z,971.00
2024-01-11T08:42:41.525Z,964.00
2024-01-11T08:43:41.399Z,967.00
2024-01-11T08:44:41.476Z,965.00
2024-01-11T08:45:41.446Z,969.00
2024-01-11T08:46:41.438Z,967.00
2024-01-11T08:47:42.321Z,961.00
2024-01-11T08:48:41.601Z,960.00
2024-01-11T08:49:41.442Z,948.00
2024-01-11T08:50:41.569Z,949.00
2024-01-11T08:51:41.520Z,942.00
2024-01-11T08:52:41.434Z,941.00
2024-01-11T08:53:41.537Z,952.00
2024-01-11T08:54:41.425Z,946.00
2024-01-11T08:55:42.884Z,957.00
2024-01-11T08:56:41.566Z,959.00
2024-01-11T08:57:41.489Z,965.00
2024-01-11T08:58:41.467Z,958.00
2024-01-11T08:59:41.569Z,959.00
2024-01-11T09:00:41.608Z,958.00
2024-01-11T09:01:47.055Z,951.00
2024-01-11T09:02:42.625Z,951.00
2024-01-11T09:03:41.676Z,932.00
2024-01-11T09:04:41.535Z,938.00
2024-01-11T09:05:41.578Z,925.00
2024-01-11T09:06:41.580Z,937.00
2024-01-11T09:07:41.496Z,923.00
2024-01-11T09:08:41.625Z,920.00
2024-01-11T09:09:47.648Z,928.00
2024-01-11T09:10:42.531Z,920.00
2024-01-11T09:11:41.594Z,914.00
2024-01-11T09:12:41.528Z,914.00
2024-01-11T09:13:41.551Z,915.00
2024-01-11T09:14:41.612Z,907.00
2024-01-11T09:15:41.522Z,884.00
2024-01-11T09:16:41.513Z,855.00
2024-01-11T09:17:41.651Z,833.00
2024-01-11T09:18:42.801Z,812.00
2024-01-11T09:19:41.862Z,791.00
2024-01-11T09:20:41.583Z,773.00
2024-01-11T09:21:41.532Z,758.00
2024-01-11T09:22:41.559Z,730.00
2024-01-11T09:23:41.678Z,705.00
2024-01-11T09:24:41.540Z,683.00
2024-01-11T09:25:42.189Z,674.00
2024-01-11T09:26:41.664Z,660.00
2024-01-11T09:27:41.682Z,656.00
2024-01-11T09:28:41.597Z,649.00
2024-01-11T09:29:41.637Z,639.00
2024-01-11T09:30:41.589Z,634.00
2024-01-11T09:31:41.575Z,635.00
2024-01-11T09:32:41.790Z,636.00
2024-01-11T09:33:41.931Z,640.00
2024-01-11T09:34:41.734Z,645.00
2024-01-11T09:35:41.693Z,643.00
2024-01-11T09:36:41.574Z,650.00
2024-01-11T09:37:41.652Z,640.00
2024-01-11T09:38:41.762Z,638.00
2024-01-11T09:39:41.652Z,644.00
2024-01-11T09:40:41.715Z,650.00
2024-01-11T09:41:41.720Z,661.00
2024-01-11T09:42:41.555Z,661.00
2024-01-11T09:43:41.548Z,660.00
2024-01-11T09:44:41.851Z,654.00
2024-01-11T09:45:41.552Z,646.00
2024-01-11T09:46:42.215Z,640.00
2024-01-11T09:47:41.613Z,635.00
2024-01-11T09:48:41.675Z,628.00
2024-01-11T09:49:41.553Z,624.00
2024-01-11T09:50:41.609Z,626.00
2024-01-11T09:51:41.595Z,610.00
2024-01-11T09:52:41.589Z,583.00
2024-01-11T09:53:41.665Z,597.00
2024-01-11T09:54:41.607Z,607.00
2024-01-11T09:55:41.593Z,600.00
2024-01-11T09:56:41.623Z,599.00
2024-01-11T09:57:41.627Z,585.00
2024-01-11T09:58:41.596Z,572.00
2024-01-11T09:59:41.750Z,565.00
2024-01-11T10:00:41.704Z,564.00
2024-01-11T10:01:41.597Z,559.00
2024-01-11T10:02:41.718Z,602.00
2024-01-11T10:03:41.662Z,611.00
2024-01-11T10:04:41.616Z,622.00
2024-01-11T10:05:41.653Z,641.00
2024-01-11T10:06:41.626Z,675.00
2024-01-11T10:07:41.614Z,733.00
2024-01-11T10:08:41.648Z,787.00
2024-01-11T10:09:41.648Z,838.00
2024-01-11T10:10:41.806Z,879.00
2024-01-11T10:11:41.820Z,924.00
2024-01-11T10:12:41.632Z,960.00
2024-01-11T10:13:42.630Z,994.00
2024-01-11T10:14:41.700Z,1012.00
2024-01-11T10:15:41.674Z,1044.00
2024-01-11T10:16:41.683Z,1064.00
2024-01-11T10:17:41.995Z,1089.00
2024-01-11T10:18:41.817Z,1117.00
2024-01-11T10:19:41.819Z,1115.00
2024-01-11T10:20:41.775Z,1140.00
2024-01-11T10:21:41.701Z,1128.00
2024-01-11T10:22:41.706Z,1128.00
2024-01-11T10:23:41.845Z,1130.00
2024-01-11T10:24:41.732Z,1129.00
2024-01-11T10:25:41.705Z,1120.00
2024-01-11T10:26:41.797Z,1096.00
2024-01-11T10:27:41.698Z,1092.00
2024-01-11T10:28:41.726Z,1105.00
2024-01-11T10:29:41.774Z,1111.00
2024-01-11T10:30:41.759Z,1100.00
2024-01-11T10:31:41.797Z,1121.00
2024-01-11T10:32:41.863Z,1122.00
2024-01-11T10:33:41.812Z,1155.00
2024-01-11T10:34:41.737Z,1154.00
2024-01-11T10:35:42.717Z,1180.00
2024-01-11T10:36:41.721Z,1193.00
2024-01-11T10:37:41.730Z,1185.00
2024-01-11T10:38:41.821Z,1193.00
2024-01-11T10:39:41.739Z,1202.00
2024-01-11T10:40:41.742Z,1216.00
2024-01-11T10:41:41.881Z,1226.00
2024-01-11T10:42:41.827Z,1227.00
2024-01-11T10:43:41.874Z,1234.00
2024-01-11T10:44:42.059Z,1231.00
2024-01-11T10:45:42.067Z,1230.00
2024-01-11T10:46:42.161Z,1230.00
2024-01-11T10:47:42.265Z,1231.00
2024-01-11T10:48:42.396Z,1216.00
2024-01-11T10:49:42.526Z,1195.00
2024-01-11T10:50:42.419Z,1188.00
2024-01-11T10:51:42.338Z,1169.00
2024-01-11T10:52:42.330Z,1176.00
2024-01-11T10:53:42.378Z,1154.00
2024-01-11T10:54:42.398Z,1158.00
2024-01-11T10:55:42.349Z,1138.00
2024-01-11T10:56:42.693Z,1136.00
2024-01-11T10:57:42.758Z,1136.00
2024-01-11T10:58:42.345Z,1118.00
2024-01-11T10:59:44.365Z,1103.00
2024-01-11T11:00:42.653Z,1092.00
2024-01-11T11:01:42.385Z,1083.00
2024-01-11T11:02:42.489Z,1075.00
2024-01-11T11:03:42.418Z,1074.00
2024-01-11T11:04:42.407Z,1091.00
2024-01-11T11:05:42.599Z,1109.00
2024-01-11T11:06:42.513Z,1147.00
2024-01-11T11:07:42.448Z,1175.00
2024-01-11T11:08:42.548Z,1167.00
2024-01-11T11:09:42.549Z,1200.00
2024-01-11T11:10:42.546Z,1201.00
2024-01-11T11:11:42.651Z,1206.00
2024-01-11T11:12:42.561Z,1220.00
2024-01-11T11:13:42.544Z,1251.00
2024-01-11T11:14:42.791Z,1305.00
2024-01-11T11:15:42.558Z,1326.00
2024-01-11T11:16:42.572Z,1345.00
2024-01-11T11:17:42.683Z,1356.00
2024-01-11T11:18:43.391Z,1370.00
2024-01-11T11:19:42.679Z,1380.00
2024-01-11T11:20:42.865Z,1381.00
2024-01-11T11:21:43.071Z,1385.00
2024-01-11T11:22:42.731Z,1392.00
2024-01-11T11:23:43.046Z,1406.00
2024-01-11T11:24:42.744Z,1382.00
2024-01-11T11:25:42.701Z,1391.00
2024-01-11T11:26:42.826Z,1406.00
2024-01-11T11:27:42.708Z,1430.00
2024-01-11T11:28:42.707Z,1472.00
2024-01-11T11:29:42.777Z,1476.00
2024-01-11T11:30:42.920Z,1478.00
2024-01-11T11:31:42.774Z,1498.00
2024-01-11T11:32:42.858Z,1480.00
2024-01-11T11:33:42.877Z,1481.00
2024-01-11T11:34:42.815Z,1482.00
2024-01-11T11:35:42.820Z,1484.00
2024-01-11T11:36:42.928Z,1491.00
2024-01-11T11:37:42.754Z,1499.00
2024-01-11T11:38:42.972Z,1483.00
2024-01-11T11:39:42.761Z,1487.00
2024-01-11T11:40:42.828Z,1499.00
2024-01-11T11:41:42.760Z,1511.00
2024-01-11T11:42:42.810Z,1530.00
2024-01-11T11:43:42.813Z,1522.00
2024-01-11T11:44:42.825Z,1524.00
2024-01-11T11:45:42.782Z,1512.00
2024-01-11T11:46:42.746Z,1505.00
2024-01-11T11:47:43.320Z,1518.00
2024-01-11T11:48:43.005Z,1541.00
2024-01-11T11:49:42.903Z,1547.00
2024-01-11T11:50:42.808Z,1541.00
2024-01-11T11:51:42.931Z,1543.00
2024-01-11T11:52:42.764Z,1546.00
2024-01-11T11:53:42.908Z,1555.00
2024-01-11T11:54:42.812Z,1580.00
2024-01-11T11:55:42.766Z,1605.00
2024-01-11T11:56:42.805Z,1609.00
2024-01-11T11:57:42.839Z,1611.00
2024-01-11T11:58:42.821Z,1606.00
2024-01-11T11:59:42.884Z,1615.00
2024-01-11T12:00:42.780Z,1609.00
2024-01-11T12:01:42.791Z,1621.00
2024-01-11T12:02:43.022Z,1600.00
2024-01-11T12:03:42.859Z,1599.00
2024-01-11T12:04:42.835Z,1589.00
2024-01-11T12:05:42.953Z,1560.00
2024-01-11T12:06:42.902Z,1571.00
2024-01-11T12:07:42.855Z,1557.00
2024-01-11T12:08:42.903Z,1543.00
2024-01-11T12:09:42.868Z,1551.00
2024-01-11T12:10:42.900Z,1536.00
2024-01-11T12:11:43.349Z,1540.00
2024-01-11T12:12:42.981Z,1537.00
2024-01-11T12:13:43.012Z,1528.00
2024-01-11T12:14:43.050Z,1523.00
2024-01-11T12:15:43.037Z,1516.00
2024-01-11T12:16:43.074Z,1484.00
2024-01-11T12:17:43.197Z,1490.00
2024-01-11T12:18:43.162Z,1504.00
2024-01-11T12:19:43.046Z,1491.00
2024-01-11T12:21:43.055Z,1476.00
2024-01-11T12:22:43.053Z,1470.00
2024-01-11T12:23:43.385Z,1441.00
2024-01-11T12:24:43.201Z,1418.00
2024-01-11T12:25:43.044Z,1399.00